Time;durP1;ratioP1;P1;durP2;ratioP2;P2;SDS_P1;SDS_P2;PMS_P1;PMS_P2;Temp;Humidity;BMP_temperature;BMP_pressure;BME280_temperature;BME280_humidity;BME280_pressure;Samples;Min_cycle;Max_cycle;Signal;HPM_P1;HPM_P2
2023/10/10 00:00:04;;;;;;;7.42;4.78;;;15.10;99.90;;;;;;937357;150;27396;-76
2023/10/10 00:02:20;;;;;;;7.22;4.95;;;15.10;99.90;;;;;;939076;149;27484;-76
2023/10/10 00:04:49;;;;;;;6.72;4.72;;;15.10;99.90;;;;;;938975;150;27370;-76
2023/10/10 00:07:15;;;;;;;5.03;4.47;;;15.10;99.90;;;;;;937001;150;27441;-76
2023/10/10 00:09:45;;;;;;;9.45;5.28;;;15.00;99.90;;;;;;944960;149;27433;-76
2023/10/10 00:12:18;;;;;;;6.97;4.65;;;15.00;99.90;;;;;;926329;150;27648;-76
2023/10/10 00:14:42;;;;;;;8.95;5.00;;;15.00;99.90;;;;;;926038;150;27348;-76
2023/10/10 00:17:08;;;;;;;6.85;5.00;;;14.90;99.90;;;;;;925642;151;27347;-76
2023/10/10 00:19:42;;;;;;;8.15;4.70;;;15.00;99.90;;;;;;932100;150;27346;-76
2023/10/10 00:22:03;;;;;;;6.80;5.40;;;14.90;99.90;;;;;;946056;148;27373;-76
2023/10/10 00:24:33;;;;;;;5.67;4.77;;;14.90;99.90;;;;;;943958;148;27232;-76
2023/10/10 00:27:06;;;;;;;7.33;5.08;;;14.90;99.90;;;;;;938187;150;27362;-76
2023/10/10 00:29:26;;;;;;;7.70;5.15;;;14.90;99.90;;;;;;937339;150;27504;-72
2023/10/10 00:31:56;;;;;;;8.18;5.40;;;14.90;99.90;;;;;;930497;150;27371;-74
2023/10/10 00:34:25;;;;;;;7.72;4.67;;;14.90;99.90;;;;;;925344;154;27498;-72
2023/10/10 00:36:51;;;;;;;5.87;4.62;;;14.90;99.90;;;;;;927406;152;27348;-73
2023/10/10 00:41:51;;;;;;;8.20;5.20;;;14.80;99.90;;;;;;944438;149;27461;-73
2023/10/10 00:44:16;;;;;;;5.85;4.85;;;14.80;99.90;;;;;;943141;149;27405;-73
2023/10/10 00:46:40;;;;;;;8.10;5.95;;;14.80;99.90;;;;;;944134;149;27386;-74
2023/10/10 00:49:13;;;;;;;8.03;5.03;;;14.80;99.90;;;;;;943184;149;27442;-72
2023/10/10 00:51:34;;;;;;;8.70;5.17;;;14.70;99.90;;;;;;942236;149;27332;-74
2023/10/10 00:54:26;;;;;;;6.28;4.45;;;14.70;99.90;;;;;;927613;154;27447;-75
2023/10/10 00:56:52;;;;;;;7.17;5.20;;;14.70;99.90;;;;;;942471;149;27922;-73
2023/10/10 00:59:06;;;;;;;6.40;4.92;;;14.70;99.90;;;;;;943400;149;27303;-73
2023/10/10 01:01:33;;;;;;;7.87;5.55;;;14.70;99.90;;;;;;944100;149;27325;-73
2023/10/10 01:03:58;;;;;;;6.25;5.17;;;14.60;99.90;;;;;;943120;149;27347;-72
2023/10/10 01:06:26;;;;;;;6.95;5.28;;;14.60;99.90;;;;;;938879;150;27415;-73
2023/10/10 01:08:54;;;;;;;7.25;5.10;;;14.60;99.90;;;;;;929253;151;27747;-74
2023/10/10 01:11:19;;;;;;;7.55;4.83;;;14.60;99.90;;;;;;942705;149;27345;-73
2023/10/10 01:13:45;;;;;;;8.05;5.08;;;14.60;99.90;;;;;;931054;151;27435;-73
2023/10/10 01:16:12;;;;;;;6.78;4.85;;;14.60;99.90;;;;;;924058;154;27689;-73
2023/10/10 01:18:39;;;;;;;10.35;4.78;;;14.60;99.90;;;;;;928762;151;27349;-77
2023/10/10 01:21:04;;;;;;;8.25;5.30;;;14.60;99.90;;;;;;925645;151;27358;-73
2023/10/10 01:23:33;;;;;;;5.90;4.90;;;14.50;99.90;;;;;;938985;149;27309;-76
2023/10/10 01:26:05;;;;;;;6.10;5.05;;;14.50;99.90;;;;;;938311;149;27340;-74
2023/10/10 01:28:27;;;;;;;5.37;4.87;;;14.50;99.90;;;;;;931208;152;27320;-73
2023/10/10 01:33:36;;;;;;;6.20;5.58;;;14.50;99.90;;;;;;905752;151;27457;-74
2023/10/10 01:35:59;;;;;;;8.13;5.27;;;14.40;99.90;;;;;;938312;149;27500;-73
2023/10/10 01:39:26;;;;;;;6.07;4.70;;;14.40;99.90;;;;;;940468;149;27510;-73
2023/10/10 01:41:15;;;;;;;5.83;4.67;;;14.40;99.90;;;;;;924308;149;27341;-76
2023/10/10 01:43:33;;;;;;;6.28;4.78;;;14.40;99.90;;;;;;940313;149;27529;-72
2023/10/10 01:46:09;;;;;;;7.55;5.12;;;14.40;99.90;;;;;;939820;149;27265;-74
2023/10/10 01:48:43;;;;;;;5.12;4.55;;;14.40;99.90;;;;;;938991;149;27520;-73
2023/10/10 01:51:02;;;;;;;7.30;4.92;;;14.40;99.90;;;;;;938995;149;27361;-75
2023/10/10 01:53:30;;;;;;;6.12;4.58;;;14.30;99.90;;;;;;938642;149;27399;-74
2023/10/10 01:55:55;;;;;;;7.90;4.85;;;14.30;99.90;;;;;;939028;149;27436;-72
2023/10/10 01:58:25;;;;;;;8.93;5.07;;;14.30;99.90;;;;;;938141;149;27446;-73
2023/10/10 02:00:51;;;;;;;8.33;4.83;;;14.30;99.90;;;;;;940517;149;27465;-73
2023/10/10 02:03:18;;;;;;;7.65;5.45;;;14.30;99.90;;;;;;938901;149;27414;-76
2023/10/10 02:05:45;;;;;;;7.17;5.27;;;14.30;99.90;;;;;;941363;149;27306;-73
2023/10/10 02:08:11;;;;;;;6.97;5.50;;;14.20;99.90;;;;;;941646;149;27306;-76
2023/10/10 02:10:36;;;;;;;8.40;5.17;;;14.20;99.90;;;;;;939195;149;27543;-74
2023/10/10 02:13:04;;;;;;;8.43;5.60;;;14.20;99.90;;;;;;939489;149;27289;-76
2023/10/10 02:15:32;;;;;;;7.40;5.17;;;14.20;99.90;;;;;;937255;149;27300;-73
2023/10/10 02:17:55;;;;;;;7.55;5.33;;;14.10;99.90;;;;;;938923;149;27370;-74
2023/10/10 02:23:01;;;;;;;6.08;4.95;;;14.10;99.90;;;;;;939014;149;27442;-73
2023/10/10 02:25:37;;;;;;;7.10;4.47;;;14.10;99.90;;;;;;938723;149;27465;-72
2023/10/10 02:28:03;;;;;;;7.13;5.13;;;14.10;99.90;;;;;;939259;149;27351;-73
2023/10/10 02:30:37;;;;;;;7.97;5.73;;;14.00;99.90;;;;;;939066;149;27357;-74
2023/10/10 02:33:14;;;;;;;7.45;5.17;;;14.00;99.90;;;;;;935856;149;27372;-73
2023/10/10 02:35:34;;;;;;;7.23;5.07;;;14.00;99.90;;;;;;930980;152;27349;-74
2023/10/10 02:38:03;;;;;;;8.37;5.43;;;14.00;99.90;;;;;;943485;149;27486;-73
2023/10/10 02:40:31;;;;;;;7.28;5.60;;;13.90;99.90;;;;;;942886;149;27368;-73
2023/10/10 02:43:18;;;;;;;6.47;4.80;;;13.90;99.90;;;;;;943423;149;27861;-73
2023/10/10 02:45:16;;;;;;;6.33;4.80;;;13.90;99.90;;;;;;941620;149;27349;-74
2023/10/10 02:47:52;;;;;;;5.75;4.35;;;13.90;99.90;;;;;;943919;149;27452;-76
2023/10/10 02:50:39;;;;;;;8.13;4.70;;;13.90;99.90;;;;;;943718;149;27441;-76
2023/10/10 02:52:45;;;;;;;5.80;4.87;;;13.80;99.90;;;;;;941148;149;27353;-76
2023/10/10 02:55:16;;;;;;;8.27;4.80;;;13.80;99.90;;;;;;924402;153;27510;-76
2023/10/10 02:57:43;;;;;;;6.80;5.07;;;13.80;99.90;;;;;;923611;154;27458;-76
2023/10/10 03:00:27;;;;;;;4.93;4.50;;;13.80;99.90;;;;;;923095;153;27378;-76
2023/10/10 03:02:42;;;;;;;6.40;5.17;;;13.80;99.90;;;;;;924956;153;27350;-76
2023/10/10 03:05:16;;;;;;;5.77;4.73;;;13.80;99.90;;;;;;923741;154;27463;-76
2023/10/10 03:07:35;;;;;;;6.92;5.70;;;13.80;99.90;;;;;;921896;153;27373;-76
2023/10/10 03:10:21;;;;;;;8.53;5.12;;;13.70;99.90;;;;;;923144;154;27287;-76
2023/10/10 03:12:37;;;;;;;7.07;5.30;;;13.70;99.90;;;;;;944511;149;27325;-76
2023/10/10 03:15:27;;;;;;;7.77;5.03;;;13.70;99.90;;;;;;942781;149;27462;-76
2023/10/10 03:18:14;;;;;;;6.03;5.07;;;13.70;99.90;;;;;;924693;153;27320;-76
2023/10/10 03:20:38;;;;;;;6.25;5.33;;;13.70;99.90;;;;;;926534;151;27606;-76
2023/10/10 03:28:32;;;;;;;6.53;5.27;;;13.60;99.90;;;;;;927294;151;27465;-78
2023/10/10 03:30:55;;;;;;;5.37;4.77;;;13.50;99.90;;;;;;920957;153;27341;-77
2023/10/10 03:36:13;;;;;;;6.50;5.13;;;13.50;99.90;;;;;;901075;152;27406;-77
2023/10/10 05:25:24;;;;;;;7.77;5.27;;;12.90;99.90;;;;;;924747;154;27373;-76
2023/10/10 05:27:48;;;;;;;6.73;5.53;;;12.90;99.90;;;;;;923769;151;27350;-76
2023/10/10 05:30:23;;;;;;;7.03;5.23;;;12.90;99.90;;;;;;928460;151;27345;-76
2023/10/10 05:33:01;;;;;;;8.23;5.73;;;12.90;99.90;;;;;;927330;154;27333;-76
2023/10/10 05:35:30;;;;;;;7.97;5.47;;;12.80;99.90;;;;;;955706;147;27500;-75
2023/10/10 05:37:59;;;;;;;8.23;5.47;;;12.80;99.90;;;;;;958766;147;27497;-75
2023/10/10 05:40:26;;;;;;;10.53;5.63;;;12.80;99.90;;;;;;944586;148;27283;-75
2023/10/10 05:42:51;;;;;;;6.65;5.55;;;12.80;99.90;;;;;;942104;148;27443;-75
2023/10/10 05:45:18;;;;;;;6.47;5.30;;;12.80;99.90;;;;;;943830;148;27282;-75
2023/10/10 05:47:44;;;;;;;7.73;5.70;;;12.80;99.90;;;;;;943248;149;27311;-75
2023/10/10 05:50:10;;;;;;;7.07;5.63;;;12.80;99.90;;;;;;945946;148;27431;-75
2023/10/10 05:52:39;;;;;;;8.67;5.50;;;12.80;99.90;;;;;;938952;149;27400;-75
2023/10/10 05:55:03;;;;;;;10.00;5.70;;;12.90;99.90;;;;;;941574;148;27343;-75
2023/10/10 05:57:30;;;;;;;6.77;5.37;;;12.90;99.90;;;;;;947444;150;27367;-76
2023/10/10 05:59:58;;;;;;;11.67;6.17;;;12.90;99.90;;;;;;946586;148;27681;-75
2023/10/10 06:02:23;;;;;;;7.27;5.33;;;12.90;99.90;;;;;;941028;150;27913;-75
2023/10/10 06:04:51;;;;;;;6.80;5.50;;;13.00;99.90;;;;;;945474;150;27383;-75
2023/10/10 06:07:16;;;;;;;7.83;5.63;;;13.00;99.90;;;;;;944483;148;27685;-75
2023/10/10 06:09:43;;;;;;;8.50;5.90;;;13.10;99.90;;;;;;946030;148;27349;-75
2023/10/10 06:12:09;;;;;;;9.35;5.47;;;13.10;99.90;;;;;;943488;148;27444;-76
2023/10/10 06:14:36;;;;;;;7.40;6.03;;;13.20;99.90;;;;;;943870;148;27422;-76
2023/10/10 06:17:02;;;;;;;6.73;5.03;;;13.30;99.90;;;;;;944067;148;27342;-76
2023/10/10 06:19:29;;;;;;;7.47;5.53;;;13.40;99.90;;;;;;943962;148;27311;-76
2023/10/10 06:22:02;;;;;;;8.90;5.92;;;13.40;99.90;;;;;;944562;150;27644;-76
2023/10/10 06:24:22;;;;;;;8.70;5.95;;;13.60;99.90;;;;;;944193;148;27352;-76
2023/10/10 06:26:50;;;;;;;7.42;5.95;;;13.70;99.90;;;;;;945102;149;27321;-76
2023/10/10 06:29:15;;;;;;;8.78;5.50;;;14.00;99.90;;;;;;941190;148;27322;-76
2023/10/10 06:31:44;;;;;;;7.58;5.58;;;14.30;99.90;;;;;;941691;150;27350;-76
2023/10/10 06:34:34;;;;;;;8.13;5.45;;;14.60;99.90;;;;;;945637;148;27354;-76
2023/10/10 06:36:37;;;;;;;5.92;4.80;;;15.00;99.90;;;;;;937521;149;27471;-76
2023/10/10 06:41:42;;;;;;;7.08;5.45;;;15.80;99.90;;;;;;947396;149;27420;-76
2023/10/10 06:44:13;;;;;;;7.92;5.45;;;16.30;99.90;;;;;;961528;146;27356;-76
2023/10/10 06:46:37;;;;;;;8.95;5.55;;;16.70;99.90;;;;;;943516;149;27396;-76
2023/10/10 06:49:04;;;;;;;5.53;4.83;;;17.10;99.90;;;;;;944399;148;28363;-77
2023/10/10 06:51:28;;;;;;;7.67;5.10;;;17.40;99.90;;;;;;945645;149;27426;-77
2023/10/10 06:53:56;;;;;;;8.80;5.20;;;17.80;99.90;;;;;;952363;149;27370;-77
2023/10/10 06:56:44;;;;;;;7.70;5.37;;;18.10;99.90;;;;;;948601;149;27379;-77
2023/10/10 06:58:48;;;;;;;7.30;5.10;;;18.40;99.90;;;;;;944401;150;27384;-77
2023/10/10 07:01:19;;;;;;;7.83;5.12;;;18.80;99.90;;;;;;945779;150;27314;-77
2023/10/10 07:03:46;;;;;;;6.53;5.15;;;19.10;99.90;;;;;;960850;146;27357;-77
2023/10/10 07:06:10;;;;;;;5.87;5.28;;;19.40;99.90;;;;;;959305;146;27419;-77
2023/10/10 07:08:37;;;;;;;6.28;4.80;;;19.60;99.90;;;;;;944472;149;27483;-77
2023/10/10 07:11:04;;;;;;;8.00;5.47;;;19.80;99.90;;;;;;940557;149;27305;-77
2023/10/10 07:13:30;;;;;;;7.78;5.67;;;19.90;99.90;;;;;;944407;149;27350;-77
2023/10/10 07:15:57;;;;;;;5.58;4.62;;;20.00;99.90;;;;;;962191;146;27372;-77
2023/10/10 07:18:23;;;;;;;7.72;5.47;;;20.20;99.90;;;;;;956712;146;27412;-77
2023/10/10 07:21:17;;;;;;;6.42;5.08;;;20.30;99.90;;;;;;948005;148;27920;-77
2023/10/10 07:23:38;;;;;;;8.33;5.20;;;20.40;99.90;;;;;;943479;149;27554;-76
2023/10/10 07:26:20;;;;;;;5.87;5.00;;;20.60;99.90;;;;;;949075;149;27297;-76
2023/10/10 07:28:47;;;;;;;6.50;5.10;;;21.00;99.90;;;;;;943844;149;27485;-76
2023/10/10 07:31:07;;;;;;;6.83;5.22;;;21.40;99.90;;;;;;941576;149;27361;-76
2023/10/10 07:33:40;;;;;;;6.97;5.25;;;21.90;99.90;;;;;;944045;149;27347;-76
2023/10/10 07:35:56;;;;;;;7.10;4.55;;;22.40;99.90;;;;;;942638;148;27348;-76
2023/10/10 07:38:29;;;;;;;9.10;5.67;;;23.00;99.90;;;;;;938550;148;27830;-76
2023/10/10 07:40:53;;;;;;;6.22;5.47;;;23.60;99.90;;;;;;940493;148;27426;-76
2023/10/10 07:43:19;;;;;;;6.95;4.95;;;24.10;99.90;;;;;;940086;148;27392;-76
2023/10/10 07:45:47;;;;;;;6.67;4.50;;;24.60;99.80;;;;;;938209;148;27322;-76
2023/10/10 07:50:48;;;;;;;10.03;4.80;;;25.70;96.50;;;;;;936692;149;27815;-77
2023/10/10 07:53:14;;;;;;;7.00;5.22;;;26.20;93.80;;;;;;938853;149;27380;-77
2023/10/10 07:58:42;;;;;;;8.80;4.80;;;27.20;89.90;;;;;;936424;149;27400;-77
2023/10/10 08:01:10;;;;;;;5.20;4.35;;;27.50;85.70;;;;;;934814;149;27370;-77
2023/10/10 08:03:21;;;;;;;5.12;4.53;;;27.80;83.10;;;;;;936775;149;27282;-77
2023/10/10 08:05:48;;;;;;;6.90;5.30;;;28.10;81.40;;;;;;936455;149;27317;-76
2023/10/10 08:08:15;;;;;;;9.20;4.60;;;28.30;79.60;;;;;;935313;149;27438;-77
2023/10/10 08:10:43;;;;;;;7.45;4.80;;;28.60;79.00;;;;;;934993;149;27368;-77
2023/10/10 08:13:10;;;;;;;5.42;4.78;;;28.80;77.00;;;;;;934601;149;28811;-77
2023/10/10 08:15:49;;;;;;;4.80;4.30;;;28.90;75.30;;;;;;936752;149;27478;-77
2023/10/10 08:18:06;;;;;;;5.42;4.33;;;29.10;73.80;;;;;;933099;149;27451;-77
2023/10/10 08:21:14;;;;;;;5.50;4.95;;;29.20;72.80;;;;;;936787;149;27354;-77
2023/10/10 08:23:04;;;;;;;6.90;4.83;;;29.30;71.80;;;;;;931790;149;27412;-77
2023/10/10 08:25:31;;;;;;;5.25;4.58;;;29.30;71.10;;;;;;938382;149;27426;-77
2023/10/10 08:27:58;;;;;;;5.95;5.33;;;29.40;70.50;;;;;;934628;149;26276;-77
2023/10/10 08:30:25;;;;;;;6.65;4.55;;;29.40;69.90;;;;;;937886;149;26244;-77
2023/10/10 08:32:50;;;;;;;6.47;5.15;;;29.50;69.30;;;;;;937152;149;27431;-77
2023/10/10 08:35:17;;;;;;;5.25;4.25;;;29.50;68.40;;;;;;935410;149;27720;-77
2023/10/10 08:37:43;;;;;;;6.30;4.78;;;29.60;67.60;;;;;;929788;151;26258;-77
2023/10/10 08:40:19;;;;;;;6.15;5.20;;;29.60;67.10;;;;;;925042;154;27362;-77
2023/10/10 08:42:42;;;;;;;5.78;5.00;;;29.50;66.20;;;;;;924783;153;27431;-77
2023/10/10 08:45:22;;;;;;;5.75;4.60;;;29.50;66.40;;;;;;943716;149;27338;-77
2023/10/10 08:47:42;;;;;;;5.30;4.80;;;29.50;66.50;;;;;;937419;151;27304;-77
2023/10/10 08:50:03;;;;;;;6.47;4.50;;;29.60;66.70;;;;;;935650;151;27414;-77
2023/10/10 08:52:29;;;;;;;5.67;4.58;;;29.60;66.30;;;;;;924100;152;27363;-77
2023/10/10 08:54:55;;;;;;;5.50;4.58;;;29.70;66.80;;;;;;928299;151;27384;-77
2023/10/10 08:57:27;;;;;;;6.92;4.90;;;29.80;65.40;;;;;;933180;151;28495;-77
2023/10/10 08:59:52;;;;;;;5.53;4.45;;;29.90;65.20;;;;;;923663;153;27356;-77
2023/10/10 09:02:20;;;;;;;6.97;4.65;;;30.10;64.90;;;;;;934088;150;28685;-77
2023/10/10 09:04:45;;;;;;;5.47;4.87;;;30.20;64.60;;;;;;927508;151;27863;-77
2023/10/10 09:07:20;;;;;;;5.95;5.03;;;30.30;63.70;;;;;;924550;154;27370;-77
2023/10/10 09:09:54;;;;;;;6.05;4.95;;;30.30;63.00;;;;;;944350;151;26391;-77
2023/10/10 09:12:14;;;;;;;5.30;4.80;;;30.30;62.20;;;;;;943329;149;27428;-77
2023/10/10 09:14:52;;;;;;;5.62;4.70;;;30.30;61.60;;;;;;943745;149;27326;-77
2023/10/10 09:17:35;;;;;;;5.47;4.50;;;30.20;61.30;;;;;;925328;154;27505;-77
2023/10/10 09:20:00;;;;;;;7.15;4.35;;;30.20;61.40;;;;;;925420;153;26295;-77
2023/10/10 09:22:28;;;;;;;6.60;4.72;;;30.10;61.40;;;;;;922871;154;27477;-77
2023/10/10 09:24:59;;;;;;;6.22;4.60;;;30.00;61.30;;;;;;940233;151;27361;-77
2023/10/10 09:27:27;;;;;;;6.42;4.80;;;29.90;61.30;;;;;;927818;151;27387;-77
2023/10/10 09:29:55;;;;;;;6.53;4.72;;;29.80;61.20;;;;;;943913;151;27314;-77
2023/10/10 09:32:23;;;;;;;5.78;4.62;;;29.80;61.10;;;;;;926026;153;27355;-77
2023/10/10 09:34:49;;;;;;;8.05;4.70;;;29.70;60.80;;;;;;923441;153;27283;-77
2023/10/10 09:37:13;;;;;;;7.17;4.70;;;29.60;60.80;;;;;;923012;151;27419;-77
2023/10/10 09:39:41;;;;;;;6.05;5.08;;;29.50;60.60;;;;;;927619;151;27413;-77
2023/10/10 09:45:52;;;;;;;6.30;4.45;;;29.30;60.70;;;;;;933375;151;27300;-77
2023/10/10 09:47:40;;;;;;;7.40;4.62;;;29.20;60.60;;;;;;917432;154;27423;-77
2023/10/10 09:57:44;;;;;;;6.00;4.50;;;28.50;60.00;;;;;;930406;150;27365;-77
2023/10/10 10:00:13;;;;;;;5.42;4.78;;;28.30;60.00;;;;;;927397;152;27554;-77
2023/10/10 10:02:43;;;;;;;4.47;4.08;;;28.10;60.00;;;;;;924217;153;27434;-77
2023/10/10 10:05:20;;;;;;;5.67;4.40;;;27.90;60.00;;;;;;925925;152;27454;-77
2023/10/10 10:07:41;;;;;;;4.70;4.30;;;27.80;60.40;;;;;;920884;153;27373;-77
2023/10/10 10:10:09;;;;;;;8.30;5.08;;;27.60;60.30;;;;;;922304;153;27507;-77
2023/10/10 10:12:46;;;;;;;4.37;3.95;;;27.40;60.40;;;;;;941635;148;27434;-77
2023/10/10 10:15:22;;;;;;;4.80;4.12;;;27.30;60.70;;;;;;926224;151;27406;-76
2023/10/10 10:18:11;;;;;;;5.67;4.55;;;27.20;60.90;;;;;;924214;154;27295;-77
2023/10/10 10:23:00;;;;;;;6.90;4.53;;;26.90;62.00;;;;;;897192;153;27387;-77
2023/10/10 10:25:26;;;;;;;7.90;5.00;;;26.90;61.40;;;;;;923613;152;27406;-77
2023/10/10 10:27:49;;;;;;;5.78;4.50;;;26.80;61.50;;;;;;923243;151;27363;-77
2023/10/10 10:32:46;;;;;;;4.37;3.90;;;26.70;61.30;;;;;;942577;151;27368;-77
2023/10/10 10:35:15;;;;;;;5.62;4.17;;;26.70;61.40;;;;;;924965;153;27346;-77
2023/10/10 10:37:44;;;;;;;6.75;4.83;;;26.70;61.50;;;;;;923898;151;27420;-77
2023/10/10 10:42:52;;;;;;;5.72;4.78;;;26.80;62.00;;;;;;923054;154;27502;-77
2023/10/10 10:45:44;;;;;;;5.37;3.98;;;26.80;61.80;;;;;;922390;152;27417;-77
2023/10/10 10:47:59;;;;;;;4.75;3.75;;;26.80;61.50;;;;;;921422;153;27293;-77
2023/10/10 10:50:28;;;;;;;5.40;4.50;;;26.80;61.30;;;;;;925174;151;27466;-77
2023/10/10 10:52:58;;;;;;;8.48;4.30;;;26.90;61.20;;;;;;918491;153;27287;-77
2023/10/10 10:55:27;;;;;;;4.92;4.30;;;26.90;61.10;;;;;;923370;153;27373;-77
2023/10/10 10:58:06;;;;;;;5.92;4.08;;;26.90;61.00;;;;;;942178;149;27438;-75
2023/10/10 11:00:40;;;;;;;6.17;3.90;;;26.90;60.70;;;;;;926874;151;27395;-77
2023/10/10 11:02:51;;;;;;;5.58;4.40;;;26.80;60.40;;;;;;941777;149;27370;-77
2023/10/10 11:05:13;;;;;;;5.15;4.05;;;26.80;60.40;;;;;;943549;149;27329;-77
2023/10/10 11:07:43;;;;;;;4.15;3.75;;;26.80;60.30;;;;;;927101;151;28643;-77
2023/10/10 11:10:10;;;;;;;4.65;3.98;;;26.70;60.30;;;;;;939395;149;27537;-77
2023/10/10 11:12:40;;;;;;;6.33;3.80;;;26.70;60.30;;;;;;939649;149;27934;-77
2023/10/10 11:15:07;;;;;;;5.35;3.70;;;26.60;60.50;;;;;;940226;149;27345;-77
2023/10/10 11:17:38;;;;;;;4.92;4.33;;;26.60;60.40;;;;;;924364;151;27355;-77
2023/10/10 11:20:19;;;;;;;4.70;4.12;;;26.60;60.40;;;;;;921027;151;27928;-77
2023/10/10 11:22:40;;;;;;;4.42;3.80;;;26.70;60.30;;;;;;940636;149;27341;-77
2023/10/10 11:25:11;;;;;;;8.75;3.87;;;26.60;60.00;;;;;;944213;149;27438;-77
2023/10/10 11:27:43;;;;;;;5.75;4.00;;;26.60;60.10;;;;;;943772;149;27407;-77
2023/10/10 11:30:08;;;;;;;6.03;3.75;;;26.60;60.00;;;;;;942495;151;27414;-77
2023/10/10 11:32:36;;;;;;;6.62;3.75;;;26.60;60.00;;;;;;925293;153;27474;-77
2023/10/10 11:35:22;;;;;;;5.10;4.00;;;26.60;60.10;;;;;;923747;153;27374;-77
2023/10/10 11:37:32;;;;;;;4.47;3.80;;;26.60;60.00;;;;;;926250;151;27445;-77
2023/10/10 11:40:19;;;;;;;7.15;4.25;;;26.60;60.10;;;;;;948748;149;27363;-77
2023/10/10 11:42:48;;;;;;;6.12;4.05;;;26.70;60.20;;;;;;954235;146;27359;-77
2023/10/10 11:45:19;;;;;;;7.37;4.20;;;26.70;60.00;;;;;;944738;149;27316;-77
2023/10/10 11:47:44;;;;;;;6.37;4.35;;;26.70;59.90;;;;;;944442;150;27324;-77
2023/10/10 11:50:15;;;;;;;5.33;3.52;;;26.70;59.90;;;;;;943087;148;27347;-77
2023/10/10 11:52:50;;;;;;;5.30;3.95;;;26.70;59.90;;;;;;943161;151;27332;-77
2023/10/10 11:55:20;;;;;;;5.30;4.08;;;26.70;59.80;;;;;;938110;150;27316;-77
2023/10/10 11:57:44;;;;;;;5.95;4.03;;;26.70;59.80;;;;;;944102;150;28383;-78
2023/10/10 12:00:11;;;;;;;5.55;3.62;;;26.70;59.90;;;;;;945141;150;27312;-78
2023/10/10 12:02:42;;;;;;;4.35;3.67;;;26.70;59.80;;;;;;942180;150;27316;-77
2023/10/10 12:07:58;;;;;;;5.47;3.77;;;26.70;59.70;;;;;;943169;151;27320;-80
2023/10/10 12:10:24;;;;;;;5.55;4.25;;;26.80;59.70;;;;;;943267;150;27453;-78
2023/10/10 12:12:52;;;;;;;5.47;3.83;;;26.80;59.50;;;;;;941944;150;27684;-78
2023/10/10 12:15:19;;;;;;;3.70;3.40;;;26.90;59.60;;;;;;941818;150;27361;-78
2023/10/10 12:17:42;;;;;;;6.95;3.70;;;26.90;59.60;;;;;;943453;150;27310;-78
2023/10/10 12:20:09;;;;;;;4.25;3.42;;;26.90;59.30;;;;;;945822;151;27388;-78
2023/10/10 12:22:37;;;;;;;5.42;4.10;;;27.00;59.50;;;;;;943103;150;27296;-78
2023/10/10 12:25:04;;;;;;;5.30;3.52;;;27.00;59.20;;;;;;942631;150;27347;-78
2023/10/10 12:27:30;;;;;;;4.10;3.70;;;27.00;59.40;;;;;;942466;150;27315;-78
2023/10/10 12:29:56;;;;;;;3.90;3.27;;;27.00;58.70;;;;;;944644;150;27288;-78
2023/10/10 12:32:22;;;;;;;6.72;3.75;;;27.10;58.60;;;;;;943665;150;27427;-78
2023/10/10 12:34:50;;;;;;;5.47;3.62;;;27.10;58.30;;;;;;941188;151;27455;-78
2023/10/10 12:37:18;;;;;;;5.20;3.40;;;27.10;58.00;;;;;;941905;150;27240;-78
2023/10/10 12:39:44;;;;;;;4.70;3.52;;;27.10;58.10;;;;;;925859;151;27383;-78
2023/10/10 12:42:11;;;;;;;4.72;3.47;;;27.10;58.00;;;;;;920144;151;27322;-78
2023/10/10 12:44:38;;;;;;;3.77;3.17;;;27.10;57.70;;;;;;921440;151;27462;-78
2023/10/10 12:47:07;;;;;;;4.55;3.60;;;27.10;57.60;;;;;;920066;151;27358;-78
2023/10/10 12:49:36;;;;;;;4.78;3.35;;;27.10;57.50;;;;;;921662;152;28199;-78
2023/10/10 12:51:57;;;;;;;5.95;3.50;;;27.10;57.30;;;;;;920345;152;27271;-78
2023/10/10 12:54:34;;;;;;;6.60;3.45;;;27.10;57.20;;;;;;921828;151;27348;-78
2023/10/10 12:57:02;;;;;;;8.08;3.75;;;27.10;57.00;;;;;;920386;152;27383;-78
2023/10/10 12:59:19;;;;;;;4.12;3.25;;;27.10;56.90;;;;;;918459;151;27308;-78
2023/10/10 13:01:44;;;;;;;4.10;3.00;;;27.00;56.80;;;;;;920849;154;27399;-78
2023/10/10 13:04:11;;;;;;;4.60;3.55;;;27.00;56.70;;;;;;920476;152;27458;-78
2023/10/10 13:06:39;;;;;;;8.68;3.47;;;27.00;56.70;;;;;;918973;152;27353;-78
2023/10/10 13:09:05;;;;;;;5.78;3.77;;;26.90;56.70;;;;;;921457;151;27465;-78
2023/10/10 13:11:35;;;;;;;4.12;3.33;;;26.90;56.70;;;;;;920275;152;27879;-78
2023/10/10 13:14:09;;;;;;;3.77;3.00;;;26.90;56.60;;;;;;920954;152;27351;-78
2023/10/10 13:16:52;;;;;;;4.28;3.15;;;26.80;56.60;;;;;;920582;151;27448;-78
2023/10/10 13:18:53;;;;;;;5.62;3.70;;;26.80;56.50;;;;;;917870;152;27400;-77
2023/10/10 13:21:22;;;;;;;4.50;3.50;;;26.80;56.60;;;;;;920298;152;27480;-77
2023/10/10 13:23:51;;;;;;;4.03;3.45;;;26.80;56.60;;;;;;919368;152;27347;-78
2023/10/10 13:26:17;;;;;;;5.75;3.27;;;26.80;56.50;;;;;;919156;151;27469;-78
2023/10/10 13:28:47;;;;;;;8.00;3.50;;;26.80;56.60;;;;;;920752;154;27354;-78
2023/10/10 13:31:16;;;;;;;3.80;3.45;;;26.70;56.70;;;;;;921199;151;27354;-78
2023/10/10 13:33:43;;;;;;;4.87;3.20;;;26.70;56.60;;;;;;920199;151;27363;-77
2023/10/10 13:36:12;;;;;;;4.72;3.35;;;26.70;56.70;;;;;;919487;151;27321;-78
2023/10/10 13:38:35;;;;;;;5.17;3.42;;;26.70;56.70;;;;;;921700;151;27346;-78
2023/10/10 13:41:03;;;;;;;4.28;3.30;;;26.70;56.50;;;;;;933854;149;27337;-77
2023/10/10 13:43:29;;;;;;;4.70;3.05;;;26.60;56.30;;;;;;931009;149;27331;-77
2023/10/10 13:45:57;;;;;;;4.78;3.17;;;26.60;56.40;;;;;;934560;149;27297;-77
2023/10/10 13:48:24;;;;;;;4.08;3.20;;;26.50;56.30;;;;;;935273;151;27337;-77
2023/10/10 13:50:51;;;;;;;3.85;3.12;;;26.40;56.30;;;;;;933921;149;27333;-78
2023/10/10 13:53:15;;;;;;;4.58;3.40;;;26.40;56.50;;;;;;933925;149;27433;-77
2023/10/10 13:55:42;;;;;;;4.05;3.08;;;26.30;56.60;;;;;;931499;149;27312;-77
2023/10/10 13:58:12;;;;;;;3.22;2.92;;;26.20;56.60;;;;;;933580;149;27357;-77
2023/10/10 14:00:35;;;;;;;3.60;2.98;;;26.20;56.70;;;;;;933442;149;27293;-77
2023/10/10 14:03:04;;;;;;;4.85;3.27;;;26.10;56.70;;;;;;935213;150;27329;-77
2023/10/10 14:05:29;;;;;;;4.60;3.42;;;26.00;56.70;;;;;;934471;149;27336;-77
2023/10/10 14:07:55;;;;;;;4.20;3.37;;;25.90;56.60;;;;;;936027;147;27349;-77
2023/10/10 14:10:21;;;;;;;3.40;3.10;;;25.90;56.60;;;;;;935812;149;27476;-77
2023/10/10 14:12:50;;;;;;;4.85;3.40;;;25.80;56.70;;;;;;933913;149;27298;-77
2023/10/10 14:15:14;;;;;;;4.65;3.45;;;25.80;56.80;;;;;;935625;149;27349;-78
2023/10/10 14:17:41;;;;;;;4.62;3.12;;;25.70;56.80;;;;;;935277;150;27345;-78
2023/10/10 14:20:20;;;;;;;4.58;3.47;;;25.70;56.90;;;;;;935811;149;27332;-77
2023/10/10 14:22:38;;;;;;;7.92;3.67;;;25.60;56.80;;;;;;935205;149;27401;-77
2023/10/10 14:25:12;;;;;;;5.60;3.40;;;25.50;56.80;;;;;;937664;150;27380;-77
2023/10/10 14:27:31;;;;;;;4.60;3.58;;;25.50;56.90;;;;;;935150;151;27359;-77
2023/10/10 14:29:57;;;;;;;4.80;3.85;;;25.40;56.90;;;;;;935390;151;27337;-77
2023/10/10 14:32:27;;;;;;;7.40;3.60;;;25.40;57.00;;;;;;934459;151;27302;-77
2023/10/10 14:34:52;;;;;;;5.83;3.20;;;25.30;57.00;;;;;;934966;149;27485;-77
2023/10/10 14:37:17;;;;;;;3.85;3.33;;;25.30;57.10;;;;;;936903;149;27242;-77
2023/10/10 14:39:44;;;;;;;4.97;3.72;;;25.20;57.00;;;;;;935638;149;27375;-77
2023/10/10 14:42:11;;;;;;;4.45;3.50;;;25.20;57.10;;;;;;946373;150;27307;-77
2023/10/10 14:44:40;;;;;;;4.62;3.52;;;25.10;57.20;;;;;;949966;148;27424;-77
2023/10/10 14:47:04;;;;;;;4.70;3.70;;;25.10;57.30;;;;;;948241;149;27318;-77
2023/10/10 14:49:30;;;;;;;5.33;3.30;;;25.00;57.40;;;;;;947278;149;27343;-77
2023/10/10 14:51:59;;;;;;;7.85;3.27;;;25.00;57.40;;;;;;950201;148;27330;-77
2023/10/10 14:54:23;;;;;;;3.98;3.02;;;24.90;57.50;;;;;;947259;149;27355;-77
2023/10/10 14:56:54;;;;;;;5.97;3.17;;;24.90;57.60;;;;;;946784;150;27323;-77
2023/10/10 14:59:22;;;;;;;8.00;4.28;;;24.90;57.70;;;;;;948034;149;27832;-77
2023/10/10 15:01:49;;;;;;;5.25;3.67;;;24.90;57.70;;;;;;947800;149;27300;-77
2023/10/10 15:04:13;;;;;;;6.05;3.30;;;24.80;57.60;;;;;;947475;150;27543;-77
2023/10/10 15:06:42;;;;;;;5.12;3.30;;;24.80;57.60;;;;;;946817;150;27307;-77
2023/10/10 15:09:06;;;;;;;5.70;3.35;;;24.70;57.60;;;;;;946810;149;27397;-77
2023/10/10 15:11:32;;;;;;;4.25;2.95;;;24.70;57.60;;;;;;947890;150;27302;-77
2023/10/10 15:13:59;;;;;;;4.55;3.77;;;24.70;57.70;;;;;;948308;148;27292;-77
2023/10/10 15:16:34;;;;;;;5.58;3.98;;;24.70;57.80;;;;;;945544;147;27306;-77
2023/10/10 15:18:54;;;;;;;5.55;3.60;;;24.60;57.90;;;;;;947257;149;27310;-77